Oakpark, VA (22730)

8:47 AM EDT on August 20, 2014 (GMT -0400)
Locust Dale (Siamese Rescue) | Change Station
CLOSE
Current Station
Personal Weather Station
Location: Locust Dale, VA
Elevation: 404 ft
Nearby Weather Stations

Elev 404 ft 38.35 °N, 78.12 °W | Updated 1 second ago

Overcast
Overcast
73.2 °F
Feels Like 71 °F
N
0.9
Wind Variable Wind from ESE
Gusts 1.0 mph

Today
High -- | Low -- °F
--% Chance of Precip.
Yesterday
High -- | Low -- °F
Precip. -- in
6:31 AM 7:59 PM
Waning Crescent, 22% visible
Pressure 29.99 in
Visibility 10.0 miles
Clouds Overcast 300 ft
Heat Index 71 °F
Dew Point 70 °F
Humidity 90%
Rainfall 0.00 in
Snow Depth Not available.
UV 1 out of 12
Pollen 8.80 out of 12
Air Quality Not available.
Flu Activity Not available.
METAR KOMH 201235Z AUTO 14005KT 10SM OVC003 22/20 A2999 RMK AO2

More Conditions Fewer Conditions

Pressure 29.99 in
Visibility 10.0 miles
Clouds Overcast 300 ft
Heat Index 71 °F
Dew Point 70 °F
Humidity 90%
Rainfall 0.00 in
Snow Depth Not available.
UV 1 out of 12
Pollen 8.80 out of 12
Air Quality Not available.
Flu Activity Not available.
METAR KOMH 201235Z AUTO 14005KT 10SM OVC003 22/20 A2999 RMK AO2

More Conditions Fewer Conditions

10-Day Weather Forecast

Almanac

Astronomy

Aug. 20, 2014 Rise Set
Actual Time 6:31 AM EDT 7:59 PM EDT
Civil Twilight 6:03 AM EDT 8:27 PM EDT
Nautical Twilight 5:30 AM EDT 9:00 PM EDT
Astronomical Twilight 4:54 AM EDT 9:35 PM EDT
Moon 2:11 AM EDT 4:41 PM EDT
Length of Visible Light 14h 23m
Length of Day
13h 28m
Tomorrow will be 2m 15s shorter.
Waning Crescent, 22% of the Moon is Illuminated
Today
Waning Crescent
Aug 25
New
Sep 2
First Quarter
Sep 8
Full
Sep 15
Last Quarter

Today's Extremes

State Highs State Lows

Community

WunderPhotos

Upload Photos

1,745,618 photos uploaded!

Nearby

Snow Depth

Station Depth Elevation
No new snow has been reported.

Earthquake Activity

City Distance Mag. Time & Date
No recent earthquake activity has been reported nearby.
Minimum magnitude displayed is 2.5.

Coastal Water Temperatures

Place Temperature
No Stations Reporting

Nearby Weather Stations